Time;durP1;ratioP1;P1;durP2;ratioP2;P2;SDS_P1;SDS_P2;PMS_P1;PMS_P2;Temp;Humidity;BMP_temperature;BMP_pressure;BME280_temperature;BME280_humidity;BME280_pressure;Samples;Min_cycle;Max_cycle;Signal;HPM_P1;HPM_P2
2021/08/28 00:01:01;;;;;;;16.10;4.55;;;15.30;99.90;;;;;;5033261;28;20036;-77
2021/08/28 00:03:27;;;;;;;11.35;4.13;;;15.30;99.90;;;;;;5033747;28;20032;-77
2021/08/28 00:05:53;;;;;;;9.75;4.10;;;15.30;99.90;;;;;;5033143;28;20029;-80
2021/08/28 00:08:18;;;;;;;10.57;3.90;;;15.30;99.90;;;;;;5033376;28;20761;-80
2021/08/28 00:10:44;;;;;;;14.98;4.30;;;15.30;99.90;;;;;;5033441;28;20108;-77
2021/08/28 00:13:11;;;;;;;10.20;4.70;;;15.30;99.90;;;;;;5033549;28;20029;-77
2021/08/28 00:15:36;;;;;;;14.82;5.10;;;15.20;99.90;;;;;;5031029;28;20053;-77
2021/08/28 00:18:03;;;;;;;16.80;4.18;;;15.20;99.90;;;;;;5032848;28;20152;-77
2021/08/28 00:20:29;;;;;;;12.95;4.82;;;15.10;99.90;;;;;;5033279;28;20037;-80
2021/08/28 00:22:55;;;;;;;12.82;4.63;;;15.10;99.90;;;;;;5033311;28;20026;-80
2021/08/28 00:25:20;;;;;;;15.10;4.10;;;15.10;99.90;;;;;;5027800;28;20033;-77
2021/08/28 00:27:46;;;;;;;10.15;3.88;;;15.10;99.90;;;;;;5011766;28;20215;-80
2021/08/28 00:30:12;;;;;;;14.57;4.78;;;15.00;99.90;;;;;;5013167;28;20038;-77
2021/08/28 00:32:39;;;;;;;11.82;4.35;;;15.00;99.90;;;;;;5013124;28;20107;-80
2021/08/28 00:35:06;;;;;;;12.68;3.97;;;15.00;99.90;;;;;;5013172;28;20022;-77
2021/08/28 00:37:32;;;;;;;12.55;3.83;;;14.90;99.90;;;;;;5011504;28;20040;-77
2021/08/28 00:39:58;;;;;;;12.63;4.68;;;14.90;99.90;;;;;;5013348;28;20037;-77
2021/08/28 00:42:24;;;;;;;7.15;3.95;;;14.80;99.90;;;;;;5012071;28;20125;-77
2021/08/28 00:44:50;;;;;;;11.32;4.35;;;14.80;99.90;;;;;;5033099;28;20491;-80
2021/08/28 00:47:16;;;;;;;13.77;4.35;;;14.80;99.90;;;;;;5027964;28;20109;-80
2021/08/28 00:49:44;;;;;;;13.10;4.68;;;14.80;99.90;;;;;;5015466;28;20026;-77
2021/08/28 00:52:10;;;;;;;10.77;4.15;;;14.80;99.90;;;;;;5032605;28;20547;-77
2021/08/28 00:54:38;;;;;;;9.70;4.50;;;14.80;99.90;;;;;;5031061;28;20061;-77
2021/08/28 00:57:10;;;;;;;16.58;4.55;;;14.80;99.90;;;;;;5030597;28;20021;-77
2021/08/28 00:59:36;;;;;;;12.27;4.35;;;14.80;99.90;;;;;;5032700;28;20407;-80
2021/08/28 01:02:05;;;;;;;14.13;4.18;;;14.70;99.90;;;;;;5030905;28;20116;-80
2021/08/28 01:05:01;;;;;;;10.05;3.90;;;14.70;99.90;;;;;;5030835;28;20029;-77
2021/08/28 01:07:46;;;;;;;12.00;4.20;;;14.70;99.90;;;;;;5030535;28;20029;-76
2021/08/28 01:10:15;;;;;;;13.18;4.60;;;14.60;99.90;;;;;;5030884;28;20038;-77
2021/08/28 01:12:44;;;;;;;12.05;4.07;;;14.60;99.90;;;;;;5031967;28;20029;-77
2021/08/28 01:15:13;;;;;;;8.63;4.13;;;14.50;99.90;;;;;;5030293;28;20503;-76
2021/08/28 01:17:43;;;;;;;11.60;4.65;;;14.50;99.90;;;;;;5030603;28;20038;-76
2021/08/28 01:20:22;;;;;;;16.00;4.72;;;14.50;99.90;;;;;;5030401;28;20025;-76
2021/08/28 01:22:50;;;;;;;8.73;4.25;;;14.50;99.90;;;;;;5030143;28;20034;-76
2021/08/28 01:25:17;;;;;;;12.02;4.68;;;14.40;99.90;;;;;;5029011;28;20071;-77
2021/08/28 01:27:50;;;;;;;14.73;4.28;;;14.40;99.90;;;;;;5010349;28;20030;-77
2021/08/28 01:30:16;;;;;;;8.95;4.15;;;14.30;99.90;;;;;;5010813;28;20022;-77
2021/08/28 01:32:44;;;;;;;10.05;4.25;;;14.30;99.90;;;;;;5010286;28;20128;-76
2021/08/28 01:35:11;;;;;;;19.40;4.78;;;14.30;99.90;;;;;;5010600;28;20026;-77
2021/08/28 01:37:41;;;;;;;13.90;4.60;;;14.20;99.90;;;;;;5011408;28;20477;-77
2021/08/28 01:40:08;;;;;;;16.27;4.07;;;14.20;99.90;;;;;;5011958;28;20517;-80
2021/08/28 01:42:35;;;;;;;10.30;4.53;;;14.10;99.90;;;;;;5011887;28;20038;-77
2021/08/28 01:45:02;;;;;;;10.88;4.25;;;14.00;99.90;;;;;;5032124;28;20168;-76
2021/08/28 01:47:29;;;;;;;13.60;4.85;;;13.90;99.90;;;;;;5031208;28;20029;-76
2021/08/28 01:49:55;;;;;;;9.95;4.20;;;13.90;99.90;;;;;;5029818;28;20390;-80
2021/08/28 01:52:21;;;;;;;12.27;4.57;;;13.90;99.90;;;;;;5029577;28;20025;-77
2021/08/28 01:54:49;;;;;;;13.00;4.65;;;13.90;99.90;;;;;;5029482;28;20067;-77
2021/08/28 01:57:16;;;;;;;13.18;4.70;;;13.90;99.90;;;;;;5011710;28;20029;-77
2021/08/28 01:59:42;;;;;;;11.15;4.32;;;13.80;99.90;;;;;;5011446;28;20038;-77
2021/08/28 02:02:08;;;;;;;12.55;4.18;;;13.80;99.90;;;;;;5011521;28;20027;-77
2021/08/28 02:04:35;;;;;;;12.98;4.68;;;13.80;99.90;;;;;;5010459;28;20149;-77
2021/08/28 02:07:09;;;;;;;14.40;4.57;;;13.80;99.90;;;;;;5010906;28;20026;-76
2021/08/28 02:10:12;;;;;;;7.57;3.97;;;13.70;99.90;;;;;;5009890;28;20508;-80
2021/08/28 02:12:40;;;;;;;9.73;3.92;;;13.70;99.90;;;;;;5011398;28;20038;-76
2021/08/28 02:15:11;;;;;;;11.88;4.30;;;13.70;99.90;;;;;;5010687;28;20532;-76
2021/08/28 02:17:59;;;;;;;13.43;4.43;;;13.60;99.90;;;;;;5010518;28;20486;-80
2021/08/28 02:20:30;;;;;;;8.75;3.97;;;13.60;99.90;;;;;;5011500;28;20030;-76
2021/08/28 02:23:03;;;;;;;17.63;4.93;;;13.60;99.90;;;;;;5011138;28;20026;-76
2021/08/28 02:25:35;;;;;;;6.93;4.10;;;13.60;99.90;;;;;;5008510;28;20042;-76
2021/08/28 02:28:04;;;;;;;7.95;4.20;;;13.60;99.90;;;;;;5009924;28;20519;-76
2021/08/28 02:30:32;;;;;;;12.00;4.38;;;13.60;99.90;;;;;;5010738;28;20022;-80
2021/08/28 02:33:02;;;;;;;11.20;4.30;;;13.60;99.90;;;;;;5011191;28;20072;-77
2021/08/28 02:35:30;;;;;;;10.98;4.00;;;13.50;99.90;;;;;;5011022;28;20045;-76
2021/08/28 02:37:57;;;;;;;10.75;4.45;;;13.50;99.90;;;;;;5009586;28;20030;-80
2021/08/28 02:40:24;;;;;;;13.98;4.93;;;13.50;99.90;;;;;;5009850;28;20018;-76
2021/08/28 02:42:50;;;;;;;11.70;4.20;;;13.50;99.90;;;;;;5010950;28;20088;-76
2021/08/28 02:45:19;;;;;;;14.68;4.47;;;13.40;99.90;;;;;;5034605;28;20037;-76
2021/08/28 02:47:47;;;;;;;9.55;4.00;;;13.50;99.90;;;;;;5018546;28;20037;-77
2021/08/28 02:50:14;;;;;;;17.23;4.22;;;13.40;99.90;;;;;;5017213;28;20088;-76
2021/08/28 02:52:43;;;;;;;9.32;4.45;;;13.40;99.90;;;;;;5028956;28;20022;-76
2021/08/28 02:55:10;;;;;;;11.38;4.38;;;13.40;99.90;;;;;;5028364;28;20032;-76
2021/08/28 02:57:38;;;;;;;11.23;3.70;;;13.40;99.90;;;;;;5011345;28;20117;-80
2021/08/28 03:00:05;;;;;;;9.45;3.80;;;13.40;99.90;;;;;;5010604;28;20072;-77
2021/08/28 03:02:31;;;;;;;11.00;3.85;;;13.40;99.90;;;;;;5010827;28;20104;-80
2021/08/28 03:04:57;;;;;;;14.50;4.13;;;13.40;99.90;;;;;;5010252;28;20029;-76
2021/08/28 03:07:23;;;;;;;7.82;3.55;;;13.30;99.90;;;;;;5009088;28;20069;-77
2021/08/28 03:09:51;;;;;;;8.00;3.85;;;13.30;99.90;;;;;;5011457;28;20060;-76
2021/08/28 03:12:17;;;;;;;12.63;3.85;;;13.30;99.90;;;;;;5010962;28;20109;-78
2021/08/28 03:14:44;;;;;;;9.88;3.40;;;13.30;99.90;;;;;;5010104;28;20057;-76
2021/08/28 03:17:13;;;;;;;10.00;4.30;;;13.20;99.90;;;;;;5009896;28;20030;-76
2021/08/28 03:19:42;;;;;;;9.23;3.97;;;13.20;99.90;;;;;;5010119;28;20076;-76
2021/08/28 03:22:12;;;;;;;7.95;3.65;;;13.20;99.90;;;;;;5010386;28;20455;-76
2021/08/28 03:24:40;;;;;;;9.57;3.63;;;13.20;99.90;;;;;;5010785;28;20523;-76
2021/08/28 03:27:07;;;;;;;10.15;3.67;;;13.30;99.90;;;;;;5008772;28;20022;-76
2021/08/28 03:29:35;;;;;;;12.27;3.60;;;13.20;99.90;;;;;;5010233;28;20501;-76
2021/08/28 03:32:02;;;;;;;13.27;4.20;;;13.20;99.90;;;;;;5009700;28;20033;-76
2021/08/28 03:34:28;;;;;;;13.98;3.63;;;13.20;99.90;;;;;;5010195;28;20105;-80
2021/08/28 03:36:55;;;;;;;13.85;4.00;;;13.20;99.90;;;;;;5010389;28;20129;-80
2021/08/28 03:39:21;;;;;;;13.30;3.85;;;13.20;99.90;;;;;;5010405;28;20044;-76
2021/08/28 03:41:47;;;;;;;12.25;3.92;;;13.20;99.90;;;;;;5010192;28;20033;-76
2021/08/28 03:44:17;;;;;;;9.18;3.58;;;13.20;99.90;;;;;;5016523;28;20060;-76
2021/08/28 03:46:47;;;;;;;8.90;3.70;;;13.20;99.90;;;;;;5025350;28;20468;-80
2021/08/28 03:49:13;;;;;;;10.18;3.47;;;13.20;99.90;;;;;;5008440;28;20535;-76
2021/08/28 03:51:39;;;;;;;6.90;3.60;;;13.20;99.90;;;;;;5026831;28;20022;-80
2021/08/28 03:54:05;;;;;;;8.13;3.40;;;13.20;99.90;;;;;;5029972;28;20024;-76
2021/08/28 03:56:31;;;;;;;10.95;3.90;;;13.20;99.90;;;;;;5016757;28;20029;-80
2021/08/28 03:58:57;;;;;;;7.32;3.40;;;13.20;99.90;;;;;;5008690;28;20048;-77
2021/08/28 04:01:23;;;;;;;10.52;3.67;;;13.20;99.90;;;;;;5008682;28;20129;-77
2021/08/28 04:03:48;;;;;;;11.57;3.20;;;13.30;99.90;;;;;;5008599;28;20411;-76
2021/08/28 04:06:14;;;;;;;9.02;3.50;;;13.30;99.90;;;;;;5009914;28;20033;-76
2021/08/28 04:08:40;;;;;;;9.35;3.22;;;13.30;99.90;;;;;;5010210;28;20030;-80
2021/08/28 04:11:05;;;;;;;7.68;3.65;;;13.30;99.90;;;;;;5008305;28;20034;-76
2021/08/28 04:13:31;;;;;;;9.70;3.22;;;13.30;99.90;;;;;;5008868;28;20018;-76
2021/08/28 04:15:58;;;;;;;11.73;3.42;;;13.20;99.90;;;;;;5009557;28;20026;-76
2021/08/28 04:18:23;;;;;;;9.52;3.58;;;13.20;99.90;;;;;;5012351;28;20026;-79
2021/08/28 04:20:49;;;;;;;10.68;3.47;;;13.20;99.90;;;;;;5012951;28;20520;-76
2021/08/28 04:23:14;;;;;;;12.00;3.75;;;13.20;99.90;;;;;;5013508;28;20033;-77
2021/08/28 04:25:40;;;;;;;10.80;3.65;;;13.10;99.90;;;;;;5016608;28;20021;-76
2021/08/28 04:28:06;;;;;;;8.98;3.53;;;13.10;99.90;;;;;;5032737;28;20036;-80
2021/08/28 04:30:32;;;;;;;7.68;3.50;;;13.00;99.90;;;;;;5033127;28;20515;-76
2021/08/28 04:32:58;;;;;;;13.43;3.63;;;13.00;99.90;;;;;;5032820;28;20034;-76
2021/08/28 04:35:24;;;;;;;12.65;3.63;;;13.00;99.90;;;;;;5031552;28;20040;-76
2021/08/28 04:37:51;;;;;;;11.88;3.53;;;12.90;99.90;;;;;;5032772;28;20026;-76
2021/08/28 04:40:17;;;;;;;10.57;3.72;;;12.90;99.90;;;;;;5031781;28;20068;-76
2021/08/28 04:42:43;;;;;;;11.02;3.50;;;12.90;99.90;;;;;;5032391;28;20095;-76
2021/08/28 04:45:09;;;;;;;9.80;3.53;;;12.90;99.90;;;;;;5040716;28;20435;-77
2021/08/28 04:47:35;;;;;;;11.73;3.28;;;12.90;99.90;;;;;;5022436;28;20029;-80
2021/08/28 04:50:00;;;;;;;8.23;3.40;;;12.90;99.90;;;;;;5011033;28;20116;-76
2021/08/28 04:52:26;;;;;;;9.40;3.75;;;12.90;99.90;;;;;;5011423;28;20434;-77
2021/08/28 04:54:52;;;;;;;10.18;3.45;;;12.90;99.90;;;;;;5012989;28;20029;-79
2021/08/28 04:57:17;;;;;;;12.77;4.03;;;12.90;99.90;;;;;;5011548;28;20088;-76
2021/08/28 04:59:43;;;;;;;10.15;3.40;;;12.90;99.90;;;;;;5012492;28;20068;-80
2021/08/28 05:02:09;;;;;;;7.65;3.67;;;12.80;99.90;;;;;;5012905;28;20038;-76
2021/08/28 05:04:34;;;;;;;9.70;4.00;;;12.80;99.90;;;;;;5012830;28;20026;-80
2021/08/28 05:07:00;;;;;;;10.15;4.10;;;12.80;99.90;;;;;;5012273;28;20037;-76
2021/08/28 05:09:26;;;;;;;13.70;3.83;;;12.80;99.90;;;;;;5011306;28;20405;-76
2021/08/28 05:11:51;;;;;;;10.30;4.10;;;12.80;99.90;;;;;;5012814;28;20026;-76
2021/08/28 05:14:17;;;;;;;15.63;4.20;;;12.80;99.90;;;;;;5012230;28;20034;-76
2021/08/28 05:16:43;;;;;;;11.90;3.97;;;12.70;99.90;;;;;;5012211;28;20022;-76
2021/08/28 05:19:08;;;;;;;9.13;3.47;;;12.70;99.90;;;;;;5012230;28;20046;-80
2021/08/28 05:21:34;;;;;;;11.27;4.00;;;12.70;99.90;;;;;;5012711;28;20061;-80
2021/08/28 05:24:00;;;;;;;10.60;3.80;;;12.80;99.90;;;;;;5011096;28;20037;-79
2021/08/28 05:26:25;;;;;;;11.50;3.97;;;12.80;99.90;;;;;;5010922;28;20068;-76
2021/08/28 05:28:51;;;;;;;9.95;4.18;;;12.80;99.90;;;;;;5011839;28;20037;-76
2021/08/28 05:31:17;;;;;;;12.48;4.00;;;12.80;99.90;;;;;;5011927;28;20585;-76
2021/08/28 05:33:43;;;;;;;8.27;3.53;;;12.70;99.90;;;;;;5011994;28;20500;-80
2021/08/28 05:36:08;;;;;;;13.50;3.80;;;12.70;99.90;;;;;;5020924;28;20033;-76
2021/08/28 05:38:34;;;;;;;17.10;4.22;;;12.80;99.90;;;;;;5031988;28;20038;-76
2021/08/28 05:41:00;;;;;;;12.30;3.95;;;12.80;99.90;;;;;;5031900;28;20025;-76
2021/08/28 05:43:26;;;;;;;12.50;4.07;;;12.80;99.90;;;;;;5021720;28;20050;-80
2021/08/28 05:45:52;;;;;;;9.95;4.00;;;12.80;99.90;;;;;;5037853;28;20408;-80
2021/08/28 05:48:18;;;;;;;8.88;3.58;;;12.80;99.90;;;;;;5026000;28;20489;-76
2021/08/28 05:50:43;;;;;;;14.55;4.57;;;12.90;99.90;;;;;;5025740;28;20083;-80
2021/08/28 05:53:09;;;;;;;11.18;4.10;;;12.90;99.90;;;;;;5010101;28;20083;-76
2021/08/28 05:55:35;;;;;;;15.00;4.15;;;12.90;99.90;;;;;;5009093;28;20033;-80
2021/08/28 05:58:00;;;;;;;11.27;4.40;;;12.90;99.90;;;;;;5011578;28;20026;-80
2021/08/28 06:00:26;;;;;;;12.48;4.70;;;13.00;99.90;;;;;;5011679;28;20026;-79
2021/08/28 06:02:52;;;;;;;12.02;4.40;;;13.10;99.90;;;;;;5010194;28;20026;-76
2021/08/28 06:05:17;;;;;;;10.38;4.55;;;13.10;99.90;;;;;;5011282;28;20057;-76
2021/08/28 06:07:43;;;;;;;17.10;4.60;;;13.20;99.90;;;;;;5011319;28;20101;-76
2021/08/28 06:10:09;;;;;;;10.50;4.30;;;13.20;99.90;;;;;;5010023;28;20087;-76
2021/08/28 06:12:35;;;;;;;15.07;4.53;;;13.30;99.90;;;;;;5011513;28;20503;-80
2021/08/28 06:15:01;;;;;;;10.30;4.43;;;13.40;99.90;;;;;;5011242;28;20026;-76
2021/08/28 06:17:27;;;;;;;15.10;4.55;;;13.40;99.90;;;;;;5010824;28;20026;-76
2021/08/28 06:19:52;;;;;;;14.13;4.68;;;13.50;99.90;;;;;;5011321;28;20504;-80
2021/08/28 06:22:18;;;;;;;8.63;4.30;;;13.50;99.90;;;;;;5010727;28;20037;-79
2021/08/28 06:24:44;;;;;;;17.55;5.13;;;13.60;99.90;;;;;;5011279;28;20026;-76
2021/08/28 06:27:10;;;;;;;15.35;4.78;;;13.70;99.90;;;;;;5009072;28;20113;-76
2021/08/28 06:29:36;;;;;;;12.77;4.70;;;13.80;99.90;;;;;;5011265;28;20029;-76
2021/08/28 06:32:03;;;;;;;9.60;4.57;;;13.80;99.90;;;;;;5011113;28;20409;-76
2021/08/28 06:34:28;;;;;;;11.90;4.60;;;13.90;99.90;;;;;;5011011;28;20014;-76
2021/08/28 06:36:54;;;;;;;13.60;4.43;;;13.90;99.90;;;;;;5010034;28;20559;-76
2021/08/28 06:39:19;;;;;;;7.68;3.70;;;14.00;99.90;;;;;;5011105;28;20575;-80
2021/08/28 06:41:45;;;;;;;10.90;4.05;;;14.10;99.90;;;;;;5010476;28;20034;-76
2021/08/28 06:44:11;;;;;;;10.98;4.68;;;14.20;99.90;;;;;;5016239;28;20044;-76
2021/08/28 06:46:36;;;;;;;18.45;4.22;;;14.30;99.90;;;;;;5028021;28;20033;-76
2021/08/28 06:49:02;;;;;;;12.82;4.70;;;14.30;99.90;;;;;;5010472;28;20022;-79
2021/08/28 06:51:28;;;;;;;10.13;4.00;;;14.40;99.90;;;;;;5027427;28;20032;-76
2021/08/28 06:53:54;;;;;;;14.23;4.75;;;14.50;99.90;;;;;;5029461;28;20021;-76
2021/08/28 06:56:20;;;;;;;13.85;4.22;;;14.60;99.90;;;;;;5019176;28;20061;-76
2021/08/28 06:58:45;;;;;;;7.50;3.78;;;14.80;99.90;;;;;;5010837;28;20041;-76
2021/08/28 07:01:11;;;;;;;9.45;4.10;;;14.90;99.90;;;;;;5009030;28;20025;-76
2021/08/28 07:03:37;;;;;;;9.95;3.70;;;15.00;99.90;;;;;;5010525;28;20041;-79
2021/08/28 07:06:03;;;;;;;10.07;3.67;;;15.10;99.90;;;;;;5010390;28;20052;-79
2021/08/28 07:08:29;;;;;;;8.90;3.63;;;15.30;99.90;;;;;;5009455;28;20034;-76
2021/08/28 07:10:54;;;;;;;11.95;4.18;;;15.40;99.90;;;;;;5009337;28;20075;-76
2021/08/28 07:13:21;;;;;;;7.05;3.13;;;15.60;99.90;;;;;;5010501;28;20026;-79
2021/08/28 07:15:47;;;;;;;10.43;3.70;;;15.70;99.90;;;;;;5008525;28;20033;-79
2021/08/28 07:18:14;;;;;;;9.05;3.63;;;15.80;99.90;;;;;;5010827;28;20030;-76
2021/08/28 07:20:40;;;;;;;14.48;3.13;;;16.00;99.90;;;;;;5009227;28;20117;-76
2021/08/28 07:23:06;;;;;;;9.93;4.15;;;16.10;99.90;;;;;;5009762;28;20025;-76
2021/08/28 07:25:37;;;;;;;11.10;3.28;;;16.20;99.90;;;;;;5007680;28;20048;-78
2021/08/28 07:28:06;;;;;;;13.90;3.55;;;16.30;99.90;;;;;;5010106;28;20034;-79
2021/08/28 07:30:32;;;;;;;8.60;2.97;;;16.40;99.90;;;;;;5010387;28;20022;-79
2021/08/28 07:32:58;;;;;;;10.98;3.38;;;16.50;99.90;;;;;;5010348;28;20420;-77
2021/08/28 07:35:24;;;;;;;8.98;3.03;;;16.70;99.90;;;;;;5010427;28;20097;-78
2021/08/28 07:37:50;;;;;;;10.05;2.55;;;16.80;99.90;;;;;;5010321;28;20042;-78
2021/08/28 07:40:16;;;;;;;10.13;2.63;;;17.00;99.90;;;;;;5010219;28;20097;-78
2021/08/28 07:42:41;;;;;;;9.77;2.90;;;17.10;99.90;;;;;;5009997;28;20038;-80
2021/08/28 07:45:07;;;;;;;14.30;3.03;;;17.20;99.90;;;;;;5032862;28;20026;-81
2021/08/28 07:47:33;;;;;;;7.95;2.60;;;17.20;99.90;;;;;;5020145;28;20034;-78
2021/08/28 07:49:59;;;;;;;10.00;3.00;;;17.30;99.90;;;;;;5014504;28;20061;-78
2021/08/28 07:52:24;;;;;;;13.68;2.75;;;17.50;99.70;;;;;;5030289;28;20037;-81
2021/08/28 07:54:50;;;;;;;7.00;2.47;;;17.70;99.60;;;;;;5032763;28;20030;-81
2021/08/28 07:57:15;;;;;;;10.05;2.35;;;17.80;99.20;;;;;;5014495;28;20028;-78
2021/08/28 07:59:41;;;;;;;5.30;2.20;;;18.00;99.00;;;;;;5013949;28;20084;-78
2021/08/28 08:02:07;;;;;;;11.88;2.22;;;18.30;98.50;;;;;;5012528;28;20076;-78
2021/08/28 08:04:33;;;;;;;7.72;2.30;;;19.30;97.60;;;;;;5014459;28;20100;-79
2021/08/28 08:06:59;;;;;;;5.20;2.20;;;21.80;93.70;;;;;;5013560;28;20112;-79
2021/08/28 08:09:24;;;;;;;8.05;2.38;;;23.80;90.20;;;;;;5012229;28;20030;-80
2021/08/28 08:11:50;;;;;;;7.70;2.28;;;24.70;85.30;;;;;;5013647;28;20033;-79
2021/08/28 08:14:15;;;;;;;8.15;2.35;;;25.60;81.90;;;;;;5013348;28;20026;-77
2021/08/28 08:16:41;;;;;;;7.05;2.05;;;26.70;79.20;;;;;;5013303;28;20033;-78
2021/08/28 08:19:07;;;;;;;9.23;2.88;;;27.50;76.10;;;;;;5011986;28;20493;-80
2021/08/28 08:21:33;;;;;;;5.28;1.92;;;27.70;74.10;;;;;;5013370;28;20123;-78
2021/08/28 08:23:58;;;;;;;7.15;2.15;;;28.10;73.70;;;;;;5011886;28;20123;-81
2021/08/28 08:26:24;;;;;;;6.35;2.30;;;28.10;72.90;;;;;;5011749;28;20068;-78
2021/08/28 08:28:49;;;;;;;5.25;2.60;;;28.60;71.80;;;;;;5013130;28;20111;-78
2021/08/28 08:31:15;;;;;;;5.22;2.17;;;29.20;70.80;;;;;;5013480;28;20026;-80
2021/08/28 08:33:41;;;;;;;3.40;1.95;;;29.10;68.90;;;;;;5013510;28;20026;-80
2021/08/28 08:36:07;;;;;;;4.78;2.10;;;29.60;68.80;;;;;;5012841;28;20037;-79
2021/08/28 08:38:32;;;;;;;5.38;2.22;;;30.20;68.90;;;;;;5012848;28;20025;-78
2021/08/28 08:40:59;;;;;;;5.53;1.95;;;30.30;66.50;;;;;;5013208;28;20104;-78
2021/08/28 08:43:26;;;;;;;9.20;2.15;;;30.00;66.60;;;;;;5011681;28;20069;-78
2021/08/28 08:45:52;;;;;;;5.38;2.03;;;29.50;65.90;;;;;;5032754;28;20038;-80
2021/08/28 08:48:18;;;;;;;4.78;2.17;;;30.10;66.00;;;;;;5032791;28;20056;-79
2021/08/28 08:50:45;;;;;;;3.88;1.90;;;30.20;64.80;;;;;;5032901;28;20054;-79
2021/08/28 08:53:15;;;;;;;6.85;2.20;;;30.70;64.20;;;;;;5032522;28;20025;-80
2021/08/28 08:55:41;;;;;;;6.13;2.50;;;30.90;63.40;;;;;;5024628;28;20033;-79
2021/08/28 08:58:07;;;;;;;5.22;2.00;;;31.10;63.60;;;;;;5013063;28;20412;-79
2021/08/28 09:00:33;;;;;;;4.85;1.95;;;31.20;63.20;;;;;;5011552;28;20025;-81
2021/08/28 09:02:58;;;;;;;3.20;1.83;;;31.20;62.20;;;;;;5012410;28;20665;-79
2021/08/28 09:05:24;;;;;;;2.90;1.80;;;31.20;61.80;;;;;;5012490;28;20029;-79
2021/08/28 09:07:50;;;;;;;4.47;1.95;;;31.60;61.50;;;;;;5012722;28;20061;-79
2021/08/28 09:10:17;;;;;;;4.20;2.45;;;31.80;61.00;;;;;;5012577;28;20018;-79
2021/08/28 09:12:43;;;;;;;3.58;2.47;;;32.00;60.40;;;;;;5012396;28;20104;-79
2021/08/28 09:15:14;;;;;;;3.58;2.00;;;31.80;60.00;;;;;;5012022;28;20030;-80
2021/08/28 09:17:56;;;;;;;2.88;1.73;;;31.70;59.50;;;;;;5011011;28;20030;-80
2021/08/28 09:20:23;;;;;;;3.67;1.88;;;31.40;59.10;;;;;;5011696;28;20108;-79
2021/08/28 09:23:01;;;;;;;2.33;1.73;;;31.70;58.20;;;;;;5012213;28;20035;-79
2021/08/28 09:25:26;;;;;;;3.33;1.80;;;31.30;58.70;;;;;;5019137;28;20532;-79
2021/08/28 09:27:52;;;;;;;4.63;2.08;;;31.50;58.50;;;;;;5032134;28;20033;-81
2021/08/28 09:30:46;;;;;;;8.38;1.95;;;31.90;58.60;;;;;;5030885;28;20053;-79
2021/08/28 09:33:19;;;;;;;4.43;2.28;;;31.50;58.30;;;;;;5027999;28;20065;-81
2021/08/28 09:35:49;;;;;;;4.50;2.00;;;31.30;57.80;;;;;;5032250;28;20030;-79
2021/08/28 09:38:19;;;;;;;4.93;1.80;;;31.50;57.70;;;;;;5031416;28;20060;-80
2021/08/28 09:40:52;;;;;;;3.00;1.80;;;32.40;57.60;;;;;;5029941;28;20040;-81
2021/08/28 09:43:19;;;;;;;1.67;1.58;;;32.90;56.60;;;;;;5031559;28;20124;-79
2021/08/28 09:45:46;;;;;;;4.50;1.83;;;32.40;56.00;;;;;;5039503;28;20033;-79
2021/08/28 09:48:14;;;;;;;5.50;1.80;;;32.40;56.40;;;;;;5031903;28;20096;-79
2021/08/28 09:50:46;;;;;;;5.22;1.65;;;32.20;56.70;;;;;;5021224;28;20018;-79
2021/08/28 09:53:14;;;;;;;2.08;1.70;;;32.70;56.80;;;;;;5009959;28;20485;-81
2021/08/28 09:55:41;;;;;;;1.92;1.70;;;32.50;56.20;;;;;;5013591;28;20045;-81
2021/08/28 09:58:09;;;;;;;2.53;1.77;;;32.60;56.10;;;;;;5031668;28;20021;-79
2021/08/28 10:00:44;;;;;;;3.17;1.90;;;32.60;55.90;;;;;;5031452;28;20037;-80
2021/08/28 10:03:10;;;;;;;2.90;1.42;;;32.70;55.50;;;;;;5031479;28;20029;-79
2021/08/28 10:05:38;;;;;;;1.80;1.70;;;32.40;55.20;;;;;;5029999;28;20037;-80
2021/08/28 10:08:06;;;;;;;2.42;1.65;;;32.40;55.40;;;;;;5029706;28;20082;-80
2021/08/28 10:10:34;;;;;;;3.28;1.42;;;32.20;55.10;;;;;;5029755;28;20037;-80
2021/08/28 10:13:02;;;;;;;4.20;1.42;;;31.70;56.30;;;;;;5029389;28;20432;-79
2021/08/28 10:15:29;;;;;;;5.43;1.70;;;31.60;56.00;;;;;;5027958;28;20026;-79
2021/08/28 10:17:56;;;;;;;7.07;1.60;;;31.70;56.00;;;;;;5029504;28;20498;-80
2021/08/28 10:20:23;;;;;;;2.63;1.50;;;31.50;56.80;;;;;;5030537;28;20072;-81
2021/08/28 10:22:53;;;;;;;3.45;1.63;;;30.80;56.70;;;;;;5029208;28;20516;-79
2021/08/28 10:25:21;;;;;;;1.77;1.30;;;29.60;58.10;;;;;;5025672;28;20037;-79
2021/08/28 10:27:48;;;;;;;7.45;1.40;;;29.20;59.70;;;;;;5010985;28;20504;-79
2021/08/28 10:30:16;;;;;;;2.40;1.17;;;28.80;59.80;;;;;;5010799;28;20018;-80
2021/08/28 10:32:42;;;;;;;4.35;1.67;;;29.60;59.70;;;;;;5010972;28;20021;-80
2021/08/28 10:35:09;;;;;;;4.32;1.30;;;30.00;58.00;;;;;;5011074;28;20386;-79
2021/08/28 10:37:35;;;;;;;1.70;1.38;;;30.10;57.10;;;;;;5010945;28;20157;-79
2021/08/28 10:40:05;;;;;;;5.00;1.40;;;31.20;57.50;;;;;;5009420;28;20030;-79
2021/08/28 10:42:32;;;;;;;2.17;1.33;;;31.10;56.60;;;;;;5010992;28;20048;-80
2021/08/28 10:45:00;;;;;;;2.03;1.40;;;30.80;56.00;;;;;;5030747;28;20485;-79
2021/08/28 10:47:31;;;;;;;7.13;1.48;;;30.60;56.90;;;;;;5029353;28;20168;-79
2021/08/28 10:50:06;;;;;;;1.83;1.30;;;30.50;57.20;;;;;;5026222;28;20528;-79
2021/08/28 10:52:37;;;;;;;1.75;1.15;;;29.60;57.10;;;;;;5010512;28;20077;-79
2021/08/28 10:55:13;;;;;;;7.05;1.00;;;29.20;58.50;;;;;;5009477;28;20520;-80
2021/08/28 10:57:40;;;;;;;3.33;1.30;;;29.00;58.30;;;;;;5010449;28;20037;-80
2021/08/28 11:00:16;;;;;;;2.10;1.40;;;29.40;58.20;;;;;;5010941;28;20485;-79
2021/08/28 11:03:00;;;;;;;4.85;1.08;;;29.50;57.80;;;;;;5010856;28;20026;-80
2021/08/28 11:05:31;;;;;;;4.07;1.15;;;29.10;57.70;;;;;;5008889;28;20022;-79
2021/08/28 11:08:16;;;;;;;2.05;1.00;;;28.60;58.50;;;;;;5010535;28;20030;-81
2021/08/28 11:10:42;;;;;;;4.10;1.00;;;28.20;59.50;;;;;;5009570;28;20393;-80
2021/08/28 11:13:07;;;;;;;2.20;1.13;;;29.10;58.80;;;;;;5023210;28;20029;-81
2021/08/28 11:15:33;;;;;;;2.78;1.40;;;29.60;57.70;;;;;;5024471;28;20040;-80
2021/08/28 11:18:02;;;;;;;1.30;0.88;;;29.50;58.20;;;;;;5009715;28;20030;-81
2021/08/28 11:20:50;;;;;;;1.33;0.88;;;29.10;57.90;;;;;;5010040;28;20437;-79
2021/08/28 11:23:21;;;;;;;3.67;1.27;;;28.40;57.70;;;;;;5010382;28;20026;-81
2021/08/28 11:25:51;;;;;;;2.13;0.80;;;27.80;58.40;;;;;;5014360;28;20048;-79
2021/08/28 11:28:20;;;;;;;1.30;0.70;;;27.60;58.80;;;;;;5032407;28;20111;-78
2021/08/28 11:30:45;;;;;;;3.65;0.82;;;27.00;60.00;;;;;;5033148;28;20390;-81
2021/08/28 11:33:20;;;;;;;3.55;0.82;;;26.90;59.80;;;;;;5034387;28;20562;-79
2021/08/28 11:35:55;;;;;;;1.23;0.80;;;26.90;60.70;;;;;;5033942;28;20067;-81
2021/08/28 11:38:31;;;;;;;4.00;0.90;;;26.90;59.90;;;;;;5034128;28;20080;-81
2021/08/28 11:41:09;;;;;;;1.65;0.80;;;26.80;60.20;;;;;;5034101;28;20053;-79
2021/08/28 11:43:37;;;;;;;3.08;0.65;;;26.70;61.00;;;;;;5035389;28;20064;-79
2021/08/28 11:46:05;;;;;;;5.95;1.13;;;26.90;60.00;;;;;;5053753;28;20029;-79
2021/08/28 11:48:34;;;;;;;1.90;0.70;;;26.90;60.10;;;;;;5053615;28;20036;-80
2021/08/28 11:50:59;;;;;;;3.60;1.00;;;26.60;60.00;;;;;;5040822;28;20047;-81
2021/08/28 11:53:27;;;;;;;2.75;0.77;;;26.30;61.30;;;;;;5033529;28;20484;-79
2021/08/28 11:56:10;;;;;;;1.98;0.73;;;26.50;61.60;;;;;;5023604;28;20028;-82
2021/08/28 11:58:52;;;;;;;3.33;0.90;;;26.10;62.00;;;;;;5012328;28;20117;-79
2021/08/28 12:01:39;;;;;;;1.75;0.93;;;26.40;62.60;;;;;;5012498;28;20026;-79
2021/08/28 12:04:07;;;;;;;2.63;0.75;;;26.20;62.30;;;;;;5028375;28;20220;-82
2021/08/28 12:06:35;;;;;;;7.22;0.95;;;26.10;61.80;;;;;;5033562;28;20041;-79
2021/08/28 12:09:03;;;;;;;1.95;0.80;;;25.90;62.50;;;;;;5033310;28;20030;-79
2021/08/28 12:11:29;;;;;;;3.78;0.68;;;26.20;63.50;;;;;;5031821;28;20042;-79
2021/08/28 12:13:58;;;;;;;5.75;0.80;;;26.20;62.00;;;;;;5033613;28;20022;-81
2021/08/28 12:16:26;;;;;;;5.88;0.80;;;26.10;62.40;;;;;;5031438;28;20030;-79
2021/08/28 12:19:03;;;;;;;2.08;0.70;;;25.90;61.80;;;;;;5033258;28;20025;-79
2021/08/28 12:21:30;;;;;;;3.10;0.93;;;25.90;61.90;;;;;;5033118;28;20036;-78
2021/08/28 12:23:56;;;;;;;1.83;0.60;;;26.20;60.80;;;;;;5033351;28;20033;-79
2021/08/28 12:26:22;;;;;;;1.88;0.60;;;26.30;61.50;;;;;;5020486;28;20405;-78
2021/08/28 12:28:49;;;;;;;1.63;0.73;;;26.60;61.60;;;;;;5011880;28;20025;-82
2021/08/28 12:31:18;;;;;;;1.65;0.50;;;26.70;61.90;;;;;;5013569;28;20029;-79
2021/08/28 12:33:44;;;;;;;6.05;0.57;;;26.60;61.90;;;;;;5012107;28;20026;-78
2021/08/28 12:36:31;;;;;;;2.53;0.88;;;26.50;61.50;;;;;;5013037;28;20556;-78
2021/08/28 12:39:01;;;;;;;2.05;0.70;;;26.40;61.60;;;;;;5012427;28;20037;-79
2021/08/28 12:41:27;;;;;;;1.20;0.63;;;26.50;61.00;;;;;;5012800;28;20034;-79
2021/08/28 12:43:53;;;;;;;4.88;0.57;;;26.30;61.90;;;;;;5017010;28;20053;-79
2021/08/28 12:46:18;;;;;;;2.65;0.70;;;26.00;60.60;;;;;;5032936;28;20467;-79